Time;durP1;ratioP1;P1;durP2;ratioP2;P2;SDS_P1;SDS_P2;PMS_P1;PMS_P2;Temp;Humidity;BMP_temperature;BMP_pressure;BME280_temperature;BME280_humidity;BME280_pressure;Samples;Min_cycle;Max_cycle;Signal;HPM_P1;HPM_P2
2023/10/14 00:02:03;;;;;;;119.90;114.83;;;;;;;12.82;100.00;99456.19;5020097;28;20461;-39
2023/10/14 00:04:31;;;;;;;89.77;86.03;;;;;;;12.68;100.00;99448.47;5019854;28;20493;-43
2023/10/14 00:07:05;;;;;;;98.87;94.53;;;;;;;12.74;100.00;99447.50;5023233;28;20495;-39
2023/10/14 00:09:42;;;;;;;98.37;94.27;;;;;;;12.67;100.00;99452.19;5026824;28;20914;-40
2023/10/14 00:12:14;;;;;;;79.17;75.83;;;;;;;12.64;100.00;99457.22;5020078;28;20453;-39
2023/10/14 00:14:43;;;;;;;106.73;102.50;;;;;;;12.71;100.00;99466.72;5021471;28;20461;-41
2023/10/14 00:17:16;;;;;;;117.30;113.10;;;;;;;12.73;100.00;99477.97;5023490;28;20432;-42
2023/10/14 00:19:49;;;;;;;124.23;119.43;;;;;;;12.74;100.00;99498.34;5021465;28;20526;-41
2023/10/14 00:22:19;;;;;;;130.77;125.87;;;;;;;12.75;100.00;99507.97;5020211;28;20457;-40
2023/10/14 00:24:48;;;;;;;126.73;121.83;;;;;;;12.74;100.00;99513.56;5021892;28;20457;-40
2023/10/14 00:27:18;;;;;;;120.40;115.33;;;;;;;12.72;100.00;99519.16;5023248;28;20436;-40
2023/10/14 00:29:46;;;;;;;130.43;125.23;;;;;;;12.69;100.00;99514.28;5020367;28;20440;-39
2023/10/14 00:32:13;;;;;;;118.83;114.10;;;;;;;12.65;100.00;99528.38;5019487;28;20998;-40
2023/10/14 00:34:42;;;;;;;107.70;103.93;;;;;;;12.66;100.00;99524.66;5020412;28;20464;-39
2023/10/14 00:37:10;;;;;;;109.00;104.63;;;;;;;12.62;100.00;99534.22;5023307;28;20515;-41
2023/10/14 00:39:38;;;;;;;111.43;107.17;;;;;;;12.59;100.00;99532.84;5021564;28;20433;-40
2023/10/14 00:42:08;;;;;;;108.60;103.80;;;;;;;12.56;100.00;99535.16;5019544;28;20463;-39
2023/10/14 00:44:39;;;;;;;114.73;109.70;;;;;;;12.52;100.00;99540.16;5019847;28;20468;-41
2023/10/14 00:47:15;;;;;;;114.27;109.67;;;;;;;12.55;100.00;99538.88;5023196;28;20436;-43
2023/10/14 00:49:42;;;;;;;115.13;110.70;;;;;;;12.56;100.00;99532.50;5020774;28;20428;-41
2023/10/14 00:52:16;;;;;;;116.27;111.90;;;;;;;12.54;100.00;99543.44;5019544;28;20515;-44
2023/10/14 00:54:58;;;;;;;108.87;103.87;;;;;;;12.52;100.00;99524.13;5020501;28;20549;-38
2023/10/14 00:57:37;;;;;;;103.13;99.33;;;;;;;12.53;100.00;99520.41;5022029;28;20822;-39
2023/10/14 01:00:10;;;;;;;110.53;106.27;;;;;;;12.57;100.00;99531.44;5022425;28;20959;-39
2023/10/14 01:02:38;;;;;;;115.40;110.60;;;;;;;12.56;100.00;99527.97;5021513;28;20871;-39
2023/10/14 01:05:13;;;;;;;107.13;103.03;;;;;;;12.56;100.00;99533.31;5018534;28;20511;-39
2023/10/14 01:07:41;;;;;;;111.07;106.43;;;;;;;12.59;100.00;99538.19;5019892;28;20473;-39
2023/10/14 01:10:12;;;;;;;112.97;108.17;;;;;;;12.55;100.00;99550.38;5022428;28;20433;-39
2023/10/14 01:12:45;;;;;;;112.20;107.30;;;;;;;12.53;100.00;99568.53;5022084;28;20456;-39
2023/10/14 01:15:20;;;;;;;112.27;108.10;;;;;;;12.51;100.00;99581.34;5018869;28;20976;-39
2023/10/14 01:17:52;;;;;;;115.17;110.40;;;;;;;12.53;100.00;99583.78;5020585;28;20433;-40
2023/10/14 01:20:35;;;;;;;107.90;103.03;;;;;;;12.52;100.00;99592.84;5022553;28;20432;-40
2023/10/14 01:23:07;;;;;;;122.33;117.23;;;;;;;12.48;100.00;99584.50;5022736;28;20460;-42
2023/10/14 01:25:41;;;;;;;118.47;113.80;;;;;;;12.37;100.00;99579.97;5021705;28;20470;-39
2023/10/14 01:28:12;;;;;;;119.80;114.93;;;;;;;12.37;100.00;99574.63;5021453;28;20809;-38
2023/10/14 01:30:55;;;;;;;117.83;113.20;;;;;;;12.35;100.00;99571.38;5019191;28;20793;-39
2023/10/14 01:33:25;;;;;;;116.83;112.53;;;;;;;12.36;100.00;99573.03;5019949;28;20442;-40
2023/10/14 01:35:53;;;;;;;111.20;106.90;;;;;;;12.33;100.00;99576.16;5019459;28;20890;-42
2023/10/14 01:38:23;;;;;;;107.07;102.80;;;;;;;12.31;100.00;99580.91;5018886;28;20465;-40
2023/10/14 01:40:52;;;;;;;105.67;101.30;;;;;;;12.30;100.00;99579.31;5020216;28;20440;-39
2023/10/14 01:43:24;;;;;;;96.80;92.60;;;;;;;12.27;100.00;99578.97;5022455;28;20819;-40
2023/10/14 01:46:00;;;;;;;87.00;83.23;;;;;;;12.24;100.00;99584.78;5019868;28;21067;-39
2023/10/14 01:48:31;;;;;;;71.73;68.07;;;;;;;12.19;100.00;99583.59;5018716;28;20986;-38
2023/10/14 01:50:59;;;;;;;75.67;71.97;;;;;;;12.21;100.00;99586.06;5020841;28;20873;-43
2023/10/14 01:53:31;;;;;;;70.80;67.80;;;;;;;12.15;100.00;99597.69;5022002;28;20428;-39
2023/10/14 01:56:01;;;;;;;71.90;67.23;;;;;;;12.10;100.00;99594.88;5018505;28;20461;-38
2023/10/14 01:58:32;;;;;;;65.43;61.67;;;;;;;12.02;100.00;99587.22;5018413;28;20790;-43
2023/10/14 02:01:13;;;;;;;53.50;50.43;;;;;;;11.95;100.00;99591.88;5019688;28;20448;-40
2023/10/14 02:03:46;;;;;;;56.63;53.50;;;;;;;11.88;100.00;99580.50;5021048;28;21077;-41
2023/10/14 02:06:18;;;;;;;51.33;48.40;;;;;;;11.81;100.00;99593.16;5018339;28;20483;-39
2023/10/14 02:08:50;;;;;;;56.57;53.57;;;;;;;11.76;100.00;99587.72;5022295;28;20447;-39
2023/10/14 02:11:20;;;;;;;64.63;60.90;;;;;;;11.72;100.00;99598.03;5025677;28;20462;-39
2023/10/14 02:13:50;;;;;;;66.60;62.70;;;;;;;11.64;100.00;99607.19;5024097;28;20516;-39
2023/10/14 02:16:23;;;;;;;67.47;64.30;;;;;;;11.57;100.00;99611.81;5021988;28;20940;-39
2023/10/14 02:18:52;;;;;;;69.60;65.90;;;;;;;11.46;100.00;99615.28;5023920;28;20438;-41
2023/10/14 02:21:32;;;;;;;65.37;62.00;;;;;;;11.39;100.00;99624.41;5025114;28;20467;-43
2023/10/14 02:24:04;;;;;;;60.30;56.23;;;;;;;11.31;100.00;99624.75;5022724;28;20766;-41
2023/10/14 02:26:33;;;;;;;59.03;55.30;;;;;;;11.28;100.00;99628.69;5022020;28;20425;-39
2023/10/14 02:29:06;;;;;;;59.67;55.73;;;;;;;11.28;100.00;99633.22;5024971;28;20490;-39
2023/10/14 02:31:36;;;;;;;60.93;57.00;;;;;;;11.24;100.00;99632.03;5025279;28;20990;-41
2023/10/14 02:34:06;;;;;;;63.10;59.73;;;;;;;11.17;100.00;99632.13;5021892;28;20967;-40
2023/10/14 02:36:41;;;;;;;63.50;59.43;;;;;;;11.13;100.00;99630.16;5022282;28;20437;-39
2023/10/14 02:39:14;;;;;;;60.07;56.87;;;;;;;11.05;100.00;99637.44;5022137;28;20455;-40
2023/10/14 02:41:45;;;;;;;58.60;55.77;;;;;;;10.97;100.00;99643.09;5022133;28;20461;-41
2023/10/14 02:44:28;;;;;;;59.20;55.67;;;;;;;10.90;100.00;99658.34;5025000;28;20975;-39
2023/10/14 02:47:01;;;;;;;57.07;53.53;;;;;;;10.83;100.00;99656.81;5022823;28;20462;-40
2023/10/14 02:49:35;;;;;;;51.63;48.80;;;;;;;10.78;100.00;99668.13;5022024;28;20437;-39
2023/10/14 02:52:08;;;;;;;53.97;51.10;;;;;;;10.72;100.00;99668.25;5024753;28;20447;-41
2023/10/14 02:54:42;;;;;;;49.30;46.40;;;;;;;10.70;100.00;99683.63;5024888;28;20475;-40
2023/10/14 02:57:14;;;;;;;46.00;43.20;;;;;;;10.70;100.00;99680.97;5025004;28;20517;-39
2023/10/14 02:59:48;;;;;;;43.30;39.87;;;;;;;10.67;100.00;99689.41;5025337;28;20546;-40
2023/10/14 03:02:25;;;;;;;40.93;37.93;;;;;;;10.69;100.00;99688.19;5025268;28;20509;-39
2023/10/14 03:05:12;;;;;;;39.23;36.70;;;;;;;10.74;100.00;99703.50;5023216;28;20456;-38
2023/10/14 03:07:50;;;;;;;35.07;31.80;;;;;;;10.75;100.00;99700.59;5021925;28;20456;-38
2023/10/14 03:10:28;;;;;;;30.90;29.10;;;;;;;10.74;100.00;99704.31;5021442;28;20461;-37
2023/10/14 03:12:57;;;;;;;31.60;29.10;;;;;;;10.71;100.00;99709.28;5023553;28;20461;-38
2023/10/14 03:15:32;;;;;;;31.13;28.23;;;;;;;10.69;100.00;99700.69;5024006;28;20475;-37
2023/10/14 03:18:01;;;;;;;30.10;28.00;;;;;;;10.65;100.00;99704.81;5022739;28;20432;-38
2023/10/14 03:20:39;;;;;;;28.83;26.63;;;;;;;10.63;100.00;99710.41;5020863;28;20471;-37
2023/10/14 03:23:12;;;;;;;28.83;26.40;;;;;;;10.59;100.00;99711.03;5025476;28;20834;-38
2023/10/14 03:25:42;;;;;;;27.30;25.33;;;;;;;10.53;100.00;99712.75;5024842;28;20827;-40
2023/10/14 03:28:14;;;;;;;27.50;25.50;;;;;;;10.51;100.00;99712.94;5024256;28;20434;-41
2023/10/14 03:30:45;;;;;;;28.37;26.17;;;;;;;10.46;100.00;99718.13;5021575;28;20437;-41
2023/10/14 03:33:14;;;;;;;24.00;22.37;;;;;;;10.47;100.00;99732.28;5021129;28;20448;-39
2023/10/14 03:35:43;;;;;;;26.77;24.60;;;;;;;10.50;100.00;99737.19;5021197;28;21024;-40
2023/10/14 03:38:25;;;;;;;23.60;22.10;;;;;;;10.52;100.00;99733.25;5021549;28;20429;-40
2023/10/14 03:41:03;;;;;;;24.40;22.47;;;;;;;10.51;100.00;99731.59;5022442;28;20433;-39
2023/10/14 03:43:34;;;;;;;25.80;23.70;;;;;;;10.48;100.00;99742.72;5024814;28;20436;-38
2023/10/14 03:46:11;;;;;;;23.30;21.67;;;;;;;10.48;100.00;99740.03;5021864;28;20485;-39
2023/10/14 03:48:50;;;;;;;24.40;22.70;;;;;;;10.48;100.00;99750.72;5021514;28;20436;-42
2023/10/14 03:51:24;;;;;;;24.73;23.07;;;;;;;10.44;100.00;99746.88;5021084;28;20552;-41
2023/10/14 03:53:53;;;;;;;25.07;22.93;;;;;;;10.40;100.00;99747.50;5021318;28;20460;-39
2023/10/14 03:56:25;;;;;;;25.60;23.30;;;;;;;10.35;100.00;99758.03;5024483;28;20507;-40
2023/10/14 03:58:57;;;;;;;25.20;23.63;;;;;;;10.29;100.00;99756.22;5023790;28;20800;-42
2023/10/14 04:01:30;;;;;;;23.27;21.67;;;;;;;10.24;100.00;99761.41;5020819;28;20457;-43
2023/10/14 04:04:01;;;;;;;24.53;22.70;;;;;;;10.19;100.00;99771.88;5022302;28;20445;-41
2023/10/14 04:06:34;;;;;;;24.70;22.70;;;;;;;10.16;100.00;99775.81;5024192;28;20916;-40
2023/10/14 04:09:08;;;;;;;24.83;22.93;;;;;;;10.16;100.00;99775.81;5021931;28;20447;-42
2023/10/14 04:11:38;;;;;;;24.93;22.83;;;;;;;10.17;100.00;99779.28;5021071;28;20460;-43
2023/10/14 04:14:09;;;;;;;25.47;23.37;;;;;;;10.15;100.00;99798.16;5023525;28;20517;-42
2023/10/14 04:16:50;;;;;;;24.73;23.00;;;;;;;10.13;100.00;99796.69;5024055;28;20472;-40
2023/10/14 04:19:27;;;;;;;25.03;23.33;;;;;;;10.11;100.00;99804.91;5020130;28;20437;-41
2023/10/14 04:21:59;;;;;;;24.47;22.70;;;;;;;10.08;100.00;99796.53;5021623;28;20460;-42
2023/10/14 04:24:45;;;;;;;25.60;23.60;;;;;;;10.05;100.00;99802.28;5023686;28;20460;-43
2023/10/14 04:27:22;;;;;;;27.10;24.57;;;;;;;10.02;100.00;99808.88;5024033;28;20852;-44
2023/10/14 04:29:53;;;;;;;25.00;23.10;;;;;;;9.99;100.00;99814.63;5023283;28;20806;-39
2023/10/14 04:32:27;;;;;;;25.07;23.07;;;;;;;9.96;100.00;99818.53;5020445;28;20457;-43
2023/10/14 04:34:57;;;;;;;24.80;22.80;;;;;;;9.97;100.00;99816.69;5021122;28;20457;-41
2023/10/14 04:37:36;;;;;;;24.70;23.07;;;;;;;9.92;100.00;99819.19;5023664;28;20500;-40
2023/10/14 04:40:15;;;;;;;24.30;22.57;;;;;;;9.91;100.00;99813.06;5021266;28;20460;-41
2023/10/14 04:42:46;;;;;;;25.63;23.00;;;;;;;9.90;100.00;99822.06;5019870;28;20508;-42
2023/10/14 04:45:16;;;;;;;24.87;22.40;;;;;;;9.88;100.00;99834.78;5019438;28;20952;-42
2023/10/14 04:47:47;;;;;;;23.23;21.83;;;;;;;9.88;100.00;99836.63;5020112;28;20434;-41
2023/10/14 04:50:23;;;;;;;24.53;22.93;;;;;;;9.82;100.00;99835.66;5019876;28;20441;-41
2023/10/14 04:52:50;;;;;;;24.87;23.10;;;;;;;9.80;100.00;99844.84;5020040;28;20457;-43
2023/10/14 04:55:28;;;;;;;25.87;23.47;;;;;;;9.79;100.00;99848.56;5023065;28;20503;-40
2023/10/14 04:58:23;;;;;;;25.40;23.00;;;;;;;9.77;100.00;99855.91;5022770;28;20530;-41
2023/10/14 05:00:52;;;;;;;25.80;23.60;;;;;;;9.74;100.00;99861.66;5019827;28;20437;-42
2023/10/14 05:03:22;;;;;;;26.43;24.10;;;;;;;9.71;100.00;99868.25;5027281;28;21173;-44
2023/10/14 05:05:52;;;;;;;25.13;23.30;;;;;;;9.71;100.00;99870.09;5019641;28;20457;-44
2023/10/14 05:08:23;;;;;;;25.80;23.60;;;;;;;9.69;100.00;99885.47;5023217;28;20470;-44
2023/10/14 05:10:52;;;;;;;25.37;23.17;;;;;;;9.64;100.00;99885.28;5022379;28;20482;-40
2023/10/14 05:13:31;;;;;;;24.93;22.67;;;;;;;9.64;100.00;99893.28;5019324;28;20531;-42
2023/10/14 05:16:15;;;;;;;25.50;23.00;;;;;;;9.66;100.00;99897.34;5019827;28;20508;-42
2023/10/14 05:18:58;;;;;;;24.03;22.33;;;;;;;9.66;100.00;99896.53;5023645;28;20464;-44
2023/10/14 05:21:36;;;;;;;25.23;23.50;;;;;;;9.63;100.00;99903.09;5023389;28;20827;-42
2023/10/14 05:24:05;;;;;;;25.03;22.83;;;;;;;9.59;100.00;99906.41;5021325;28;21046;-43
2023/10/14 05:26:36;;;;;;;23.70;21.77;;;;;;;9.59;100.00;99911.72;5020014;28;20479;-40
2023/10/14 05:29:16;;;;;;;25.93;23.40;;;;;;;9.62;100.00;99925.41;5021872;28;20440;-42
2023/10/14 05:31:44;;;;;;;26.13;23.97;;;;;;;9.64;100.00;99918.06;5023224;28;20543;-40
2023/10/14 05:34:13;;;;;;;25.03;22.77;;;;;;;9.71;100.00;99933.97;5019629;28;20826;-43
2023/10/14 05:36:41;;;;;;;24.03;21.83;;;;;;;9.79;100.00;99961.22;5019781;28;20477;-44
2023/10/14 05:39:10;;;;;;;26.50;22.10;;;;;;;9.83;100.00;99937.63;5022027;28;20433;-42
2023/10/14 05:41:38;;;;;;;23.33;21.83;;;;;;;9.91;100.00;99946.22;5022853;28;20526;-40
2023/10/14 05:44:07;;;;;;;23.57;22.03;;;;;;;9.96;100.00;99940.25;5020398;28;21035;-44
2023/10/14 05:46:35;;;;;;;26.10;23.53;;;;;;;10.02;100.00;99947.38;5019653;28;20440;-40
2023/10/14 05:49:04;;;;;;;24.93;22.93;;;;;;;10.05;100.00;99962.13;5021292;28;20437;-42
2023/10/14 05:51:32;;;;;;;24.67;22.83;;;;;;;10.05;100.00;99968.28;5023095;28;20459;-41
2023/10/14 05:54:00;;;;;;;24.20;22.60;;;;;;;10.01;100.00;99965.22;5021568;28;20462;-43
2023/10/14 05:56:28;;;;;;;23.57;21.80;;;;;;;10.01;100.00;99983.03;5019627;28;20512;-40
2023/10/14 05:58:57;;;;;;;25.33;23.43;;;;;;;10.00;100.00;99973.44;5020064;28;20436;-40
2023/10/14 06:01:26;;;;;;;24.30;22.33;;;;;;;9.94;100.00;99974.28;5022969;28;20466;-43
2023/10/14 06:03:56;;;;;;;24.73;23.10;;;;;;;9.95;100.00;99981.22;5022059;28;20443;-40
2023/10/14 06:06:24;;;;;;;25.40;23.20;;;;;;;10.01;100.00;99991.03;5019502;28;20920;-44
2023/10/14 06:08:53;;;;;;;26.37;24.30;;;;;;;10.07;100.00;99992.84;5019462;28;20585;-42
2023/10/14 06:11:20;;;;;;;26.03;24.20;;;;;;;10.11;100.00;99999.41;5019251;28;20449;-44
2023/10/14 06:13:48;;;;;;;25.93;24.20;;;;;;;10.12;100.00;100013.53;5017219;28;20468;-41
2023/10/14 06:16:16;;;;;;;25.67;23.63;;;;;;;10.16;100.00;100007.59;5022069;28;20935;-43
2023/10/14 06:18:47;;;;;;;24.80;23.07;;;;;;;10.20;100.00;100019.47;4997283;28;20436;-41
2023/10/14 06:21:16;;;;;;;26.53;24.60;;;;;;;10.28;100.00;100029.88;5018905;28;20468;-41
2023/10/14 06:23:47;;;;;;;25.80;23.50;;;;;;;10.35;100.00;100038.69;5019587;28;20461;-42
2023/10/14 06:26:17;;;;;;;24.90;22.47;;;;;;;10.42;100.00;100043.97;5019820;28;20440;-41
2023/10/14 06:28:45;;;;;;;25.80;23.10;;;;;;;10.52;100.00;100044.31;5019364;28;20465;-42
2023/10/14 06:31:13;;;;;;;25.80;23.70;;;;;;;10.60;100.00;100043.28;5018328;28;20469;-41
2023/10/14 06:33:41;;;;;;;26.47;24.00;;;;;;;10.72;100.00;100046.91;5019460;28;20492;-40
2023/10/14 06:36:14;;;;;;;24.97;23.10;;;;;;;10.77;100.00;100053.22;5021319;28;20465;-40
2023/10/14 06:38:44;;;;;;;23.57;21.67;;;;;;;10.82;100.00;100055.22;5022468;28;20467;-42
2023/10/14 06:41:16;;;;;;;26.00;23.90;;;;;;;10.93;100.00;100046.56;5019380;28;20470;-41
2023/10/14 06:43:47;;;;;;;25.53;23.50;;;;;;;10.99;100.00;100053.72;5019167;28;20852;-45
2023/10/14 06:46:16;;;;;;;24.97;22.90;;;;;;;11.06;100.00;100059.78;5021792;28;20451;-41
2023/10/14 06:48:45;;;;;;;25.80;23.23;;;;;;;11.08;100.00;100058.53;5022482;28;20432;-43
2023/10/14 06:51:14;;;;;;;24.80;22.90;;;;;;;11.12;100.00;100069.59;5018875;28;20496;-42
2023/10/14 06:53:42;;;;;;;26.40;24.50;;;;;;;11.24;100.00;100065.22;5019491;28;20443;-40
2023/10/14 06:56:11;;;;;;;25.20;23.20;;;;;;;11.34;100.00;100068.22;5024311;28;20532;-41
2023/10/14 06:58:39;;;;;;;25.07;23.13;;;;;;;11.52;100.00;100073.63;5025747;28;20480;-42
2023/10/14 07:01:07;;;;;;;24.10;22.30;;;;;;;11.67;100.00;100081.28;5023479;28;20506;-42
2023/10/14 07:03:35;;;;;;;25.83;24.03;;;;;;;11.91;100.00;100087.66;5022481;28;20457;-41
2023/10/14 07:06:04;;;;;;;24.50;22.80;;;;;;;12.05;100.00;100094.50;5023551;28;20437;-42
2023/10/14 07:08:36;;;;;;;25.33;23.73;;;;;;;12.16;100.00;100101.78;5025909;28;20432;-40
2023/10/14 07:11:06;;;;;;;26.20;24.47;;;;;;;12.29;100.00;100096.28;5024200;28;20471;-44
2023/10/14 07:13:33;;;;;;;26.13;23.80;;;;;;;12.45;100.00;100106.41;5022209;28;20449;-39
2023/10/14 07:16:06;;;;;;;27.63;25.83;;;;;;;12.66;100.00;100111.25;5022813;28;20437;-46
2023/10/14 07:18:36;;;;;;;29.33;26.53;;;;;;;12.71;100.00;100118.63;5025619;28;20479;-44
2023/10/14 07:21:08;;;;;;;30.03;27.23;;;;;;;12.86;100.00;100134.28;5023259;28;20805;-40
2023/10/14 07:23:37;;;;;;;28.87;26.27;;;;;;;12.85;100.00;100135.31;5021550;28;20788;-40
2023/10/14 07:26:09;;;;;;;29.60;25.60;;;;;;;12.94;100.00;100137.44;5022146;28;20468;-44
2023/10/14 07:28:42;;;;;;;28.70;25.67;;;;;;;12.77;100.00;100142.63;5022065;28;20933;-43
2023/10/14 07:31:11;;;;;;;28.40;25.57;;;;;;;12.73;100.00;100138.75;5023019;28;20461;-42
2023/10/14 07:33:40;;;;;;;27.47;25.07;;;;;;;12.80;100.00;100153.91;5022731;28;20444;-45
2023/10/14 07:36:08;;;;;;;28.30;26.20;;;;;;;12.76;100.00;100150.84;5023641;28;20444;-42
2023/10/14 07:38:36;;;;;;;26.90;25.00;;;;;;;12.77;100.00;100155.19;5021937;28;20473;-46
2023/10/14 07:41:05;;;;;;;29.03;26.63;;;;;;;12.83;100.00;100156.94;5021783;28;20548;-42
2023/10/14 07:43:34;;;;;;;28.37;26.33;;;;;;;12.69;100.00;100161.63;5026601;28;20884;-42
2023/10/14 07:46:02;;;;;;;26.57;24.33;;;;;;;12.85;100.00;100162.88;5022317;28;20969;-42
2023/10/14 07:48:31;;;;;;;27.13;25.00;;;;;;;12.87;100.00;100171.53;5025339;28;20460;-41
2023/10/14 07:50:58;;;;;;;28.80;26.47;;;;;;;12.80;100.00;100175.31;5024092;28;20460;-40
2023/10/14 07:53:40;;;;;;;27.97;25.97;;;;;;;12.84;100.00;100171.97;5021452;28;20429;-40
2023/10/14 07:56:09;;;;;;;27.50;25.40;;;;;;;12.83;100.00;100177.53;5023163;28;20499;-43
2023/10/14 07:58:38;;;;;;;28.10;25.40;;;;;;;12.86;100.00;100169.88;5024929;28;20886;-42
2023/10/14 08:01:09;;;;;;;27.63;25.10;;;;;;;12.95;100.00;100178.41;5023104;28;20462;-42
2023/10/14 08:03:37;;;;;;;25.67;23.50;;;;;;;12.97;100.00;100184.34;5021667;28;20436;-43
2023/10/14 08:06:10;;;;;;;25.10;23.47;;;;;;;12.96;100.00;100183.53;5021756;28;20444;-38
2023/10/14 08:08:47;;;;;;;25.20;23.50;;;;;;;12.92;100.00;100184.22;5025225;28;20519;-45
2023/10/14 08:11:16;;;;;;;24.50;22.80;;;;;;;13.13;100.00;100210.53;5021584;28;20514;-41
2023/10/14 08:13:44;;;;;;;24.30;22.63;;;;;;;13.49;100.00;100209.63;5021530;28;20516;-42
2023/10/14 08:16:12;;;;;;;24.57;22.37;;;;;;;13.71;100.00;100222.25;5022822;28;20790;-42
2023/10/14 08:18:41;;;;;;;25.90;23.90;;;;;;;13.55;100.00;100248.91;5024266;28;20883;-40
2023/10/14 08:21:09;;;;;;;25.77;23.90;;;;;;;12.86;100.00;100239.47;5022141;28;20464;-39
2023/10/14 08:23:37;;;;;;;23.17;21.97;;;;;;;12.00;100.00;100211.94;5021569;28;20568;-41
2023/10/14 08:26:12;;;;;;;23.47;21.87;;;;;;;11.93;100.00;100230.69;5021456;28;20465;-43
2023/10/14 08:28:43;;;;;;;25.33;23.90;;;;;;;11.95;100.00;100241.97;5020712;28;20520;-42
2023/10/14 08:31:11;;;;;;;25.17;23.27;;;;;;;12.27;100.00;100256.13;5021491;28;20461;-44
2023/10/14 08:33:40;;;;;;;23.80;22.60;;;;;;;12.51;100.00;100252.59;5024433;28;20816;-42
2023/10/14 08:36:13;;;;;;;23.50;22.13;;;;;;;12.86;100.00;100257.38;5017900;28;20433;-41
2023/10/14 08:38:43;;;;;;;23.67;22.37;;;;;;;12.99;100.00;100268.72;5024131;28;20526;-41
2023/10/14 08:41:14;;;;;;;22.73;21.30;;;;;;;12.83;100.00;100272.00;5021734;28;20544;-46
2023/10/14 08:43:49;;;;;;;23.10;21.93;;;;;;;12.82;100.00;100257.00;5020618;28;20460;-40
2023/10/14 08:46:23;;;;;;;23.90;22.40;;;;;;;12.73;100.00;100269.03;5022862;28;20436;-41
2023/10/14 08:48:53;;;;;;;24.87;23.10;;;;;;;12.63;100.00;100272.19;5024140;28;20438;-44
2023/10/14 08:51:22;;;;;;;23.93;22.60;;;;;;;12.68;100.00;100282.25;5020380;28;20487;-44
2023/10/14 08:53:53;;;;;;;25.57;23.63;;;;;;;12.69;100.00;100284.69;5020616;28;20533;-39
2023/10/14 08:56:22;;;;;;;25.33;23.53;;;;;;;12.91;100.00;100286.94;5023118;28;20539;-44
2023/10/14 08:58:51;;;;;;;23.63;22.27;;;;;;;13.08;100.00;100293.41;5023916;28;20530;-47
2023/10/14 09:01:22;;;;;;;23.17;21.80;;;;;;;13.16;100.00;100290.41;5020698;28;20487;-42
2023/10/14 09:03:50;;;;;;;23.50;22.10;;;;;;;13.29;100.00;100288.38;5020478;28;20433;-39
2023/10/14 09:06:18;;;;;;;24.37;22.40;;;;;;;13.35;100.00;100296.56;5022486;28;20812;-40
2023/10/14 09:08:49;;;;;;;25.57;23.57;;;;;;;13.54;100.00;100292.78;5023531;28;20432;-42
2023/10/14 09:11:27;;;;;;;24.17;22.50;;;;;;;13.19;100.00;100292.63;5020441;28;20824;-43
2023/10/14 09:14:10;;;;;;;25.80;23.53;;;;;;;13.12;100.00;100305.28;5020388;28;20804;-42
2023/10/14 09:16:39;;;;;;;24.47;22.80;;;;;;;13.28;100.00;100305.50;5019848;28;20479;-41
2023/10/14 09:19:08;;;;;;;24.90;22.70;;;;;;;13.50;100.00;100291.63;5019735;28;20559;-42
2023/10/14 09:21:43;;;;;;;23.43;21.60;;;;;;;13.57;100.00;100293.16;5023083;28;20483;-43
2023/10/14 09:24:11;;;;;;;23.67;21.30;;;;;;;13.84;100.00;100296.28;5022022;28;20432;-43
2023/10/14 09:26:43;;;;;;;23.30;21.20;;;;;;;14.07;100.00;100307.06;5024648;28;20439;-45
2023/10/14 09:29:14;;;;;;;21.97;19.67;;;;;;;14.13;100.00;100305.34;5022760;28;20432;-42
2023/10/14 09:31:46;;;;;;;18.33;16.90;;;;;;;13.94;100.00;100301.94;5023029;28;20819;-41
2023/10/14 09:34:24;;;;;;;16.53;15.13;;;;;;;13.79;100.00;100305.03;5021449;28;20451;-43
2023/10/14 09:36:55;;;;;;;13.93;12.80;;;;;;;13.59;100.00;100309.03;5019720;28;20511;-40
2023/10/14 09:39:28;;;;;;;17.00;13.00;;;;;;;13.61;100.00;100313.13;5021692;28;20498;-44
2023/10/14 09:41:58;;;;;;;14.23;13.23;;;;;;;13.53;100.00;100320.66;5022708;28;20456;-42
2023/10/14 09:44:30;;;;;;;12.13;11.60;;;;;;;13.55;100.00;100316.69;5020267;28;20841;-40
2023/10/14 09:46:59;;;;;;;13.07;12.27;;;;;;;13.54;100.00;100316.91;5019882;28;20437;-41
2023/10/14 09:49:28;;;;;;;12.73;12.00;;;;;;;13.33;100.00;100318.19;5022274;28;20458;-41
2023/10/14 09:51:59;;;;;;;15.00;13.80;;;;;;;13.29;100.00;100322.38;5022914;28;20452;-42
2023/10/14 09:54:28;;;;;;;13.37;12.50;;;;;;;13.45;100.00;100324.44;5019787;28;20430;-41
2023/10/14 09:56:57;;;;;;;13.13;12.20;;;;;;;13.64;100.00;100336.78;5019724;28;20507;-43
2023/10/14 09:59:28;;;;;;;12.70;11.90;;;;;;;13.56;100.00;100333.59;5021972;28;20812;-43
2023/10/14 10:01:57;;;;;;;12.93;12.17;;;;;;;13.47;100.00;100338.41;5022846;28;20480;-42
2023/10/14 10:04:30;;;;;;;14.33;13.00;;;;;;;13.19;100.00;100336.31;5020242;28;20437;-41
2023/10/14 10:07:15;;;;;;;14.60;13.70;;;;;;;13.15;100.00;100348.47;5019434;28;20444;-44
2023/10/14 10:10:10;;;;;;;17.93;16.43;;;;;;;13.17;100.00;100362.47;5018625;28;20889;-42
2023/10/14 10:12:41;;;;;;;21.43;19.80;;;;;;;13.17;100.00;100356.31;5019522;28;20456;-47
2023/10/14 10:15:10;;;;;;;22.13;20.80;;;;;;;13.04;100.00;100367.94;5017795;28;20439;-44
2023/10/14 10:17:40;;;;;;;25.40;23.90;;;;;;;12.92;100.00;100380.41;5019143;28;20476;-40
2023/10/14 10:20:12;;;;;;;27.00;23.93;;;;;;;12.90;100.00;100382.50;5018899;28;20460;-43
2023/10/14 10:22:45;;;;;;;25.20;23.50;;;;;;;12.92;100.00;100380.41;5022594;28;20995;-42
2023/10/14 10:25:16;;;;;;;24.70;22.30;;;;;;;13.00;100.00;100388.16;5021985;28;20434;-41
2023/10/14 10:27:49;;;;;;;23.50;21.60;;;;;;;12.86;100.00;100383.13;5019193;28;20540;-45
2023/10/14 10:30:19;;;;;;;19.80;18.00;;;;;;;12.74;100.00;100380.38;5024076;28;20802;-43
2023/10/14 10:32:51;;;;;;;19.03;17.17;;;;;;;12.81;100.00;100372.28;5026581;28;20463;-42
2023/10/14 10:35:20;;;;;;;18.03;16.20;;;;;;;12.94;100.00;100382.84;5024571;28;20976;-43
2023/10/14 10:37:52;;;;;;;16.40;14.73;;;;;;;13.05;100.00;100387.50;5022953;28;20988;-40
2023/10/14 10:40:25;;;;;;;16.67;15.20;;;;;;;13.15;100.00;100394.00;5023885;28;20544;-44
2023/10/14 10:42:57;;;;;;;24.27;16.23;;;;;;;13.23;100.00;100388.34;5025120;28;20463;-42
2023/10/14 10:45:29;;;;;;;18.07;16.37;;;;;;;13.37;100.00;100394.41;5023881;28;20531;-40
2023/10/14 10:48:00;;;;;;;21.97;16.20;;;;;;;13.40;100.00;100398.47;5022800;28;20440;-42
2023/10/14 10:50:36;;;;;;;17.23;15.90;;;;;;;13.23;100.00;100398.25;5025302;28;20862;-41
2023/10/14 10:53:19;;;;;;;18.37;16.70;;;;;;;13.07;100.00;100409.50;5025972;28;20455;-44
2023/10/14 10:55:50;;;;;;;19.37;17.40;;;;;;;12.93;100.00;100400.75;5026183;28;20443;-41
2023/10/14 10:58:20;;;;;;;20.07;16.50;;;;;;;12.89;100.00;100414.81;5024735;28;20995;-42
2023/10/14 11:00:49;;;;;;;16.83;15.20;;;;;;;12.87;100.00;100406.19;5021896;28;20465;-40
2023/10/14 11:03:18;;;;;;;16.83;15.03;;;;;;;12.90;100.00;100417.28;5023824;28;20437;-42
2023/10/14 11:05:47;;;;;;;16.77;15.27;;;;;;;13.01;100.00;100416.56;5025973;28;20440;-39
2023/10/14 11:08:16;;;;;;;15.90;14.70;;;;;;;13.27;100.00;100407.47;5024813;28;20432;-43
2023/10/14 11:10:45;;;;;;;16.30;14.20;;;;;;;13.51;100.00;100411.94;5021746;28;20467;-43
2023/10/14 11:13:16;;;;;;;19.47;14.80;;;;;;;13.37;100.00;100415.00;5023170;28;20440;-41
2023/10/14 11:15:46;;;;;;;16.40;14.97;;;;;;;13.47;100.00;100417.97;5025715;28;20858;-41
2023/10/14 11:18:14;;;;;;;16.97;14.80;;;;;;;13.46;100.00;100422.53;5025070;28;20440;-43
2023/10/14 11:21:03;;;;;;;15.37;13.93;;;;;;;13.32;100.00;100426.34;5021292;28;20453;-40
2023/10/14 11:23:35;;;;;;;16.00;14.77;;;;;;;13.37;100.00;100420.34;5025008;28;20940;-42
2023/10/14 11:26:09;;;;;;;16.67;15.03;;;;;;;13.66;100.00;100423.09;5024953;28;20437;-44